Time;durP1;ratioP1;P1;durP2;ratioP2;P2;SDS_P1;SDS_P2;PMS_P1;PMS_P2;Temp;Humidity;BMP_temperature;BMP_pressure;BME280_temperature;BME280_humidity;BME280_pressure;Samples;Min_cycle;Max_cycle;Signal;HPM_P1;HPM_P2
2022/10/29 00:01:10;;;;;;;31.88;19.75;;;;;;;13.72;100.00;100832.69;5029701;28;20061;-74
2022/10/29 00:03:36;;;;;;;31.77;19.30;;;;;;;13.69;100.00;100829.44;5030847;28;20119;-75
2022/10/29 00:06:04;;;;;;;38.05;20.35;;;;;;;13.75;100.00;100828.91;5030058;28;20021;-74
2022/10/29 00:08:32;;;;;;;36.63;19.80;;;;;;;13.74;100.00;100821.91;5029946;28;20037;-74
2022/10/29 00:11:10;;;;;;;31.55;19.45;;;;;;;13.74;100.00;100837.84;5029289;28;20075;-73
2022/10/29 00:13:36;;;;;;;31.73;20.63;;;;;;;13.71;100.00;100832.81;5028007;28;20065;-74
2022/10/29 00:16:06;;;;;;;31.23;20.38;;;;;;;13.70;100.00;100828.47;5031108;28;20061;-73
2022/10/29 00:18:31;;;;;;;30.38;18.98;;;;;;;13.72;100.00;100840.66;5027825;28;20428;-74
2022/10/29 00:21:05;;;;;;;37.97;21.90;;;;;;;13.71;100.00;100838.97;5031090;28;20029;-74
2022/10/29 00:23:30;;;;;;;34.75;21.95;;;;;;;13.69;100.00;100845.34;5030156;28;20044;-74
2022/10/29 00:25:58;;;;;;;42.08;21.90;;;;;;;13.57;100.00;100846.41;5030052;28;20033;-74
2022/10/29 00:28:24;;;;;;;30.65;19.90;;;;;;;13.53;100.00;100841.38;5030568;28;20128;-74
2022/10/29 00:30:50;;;;;;;35.97;19.92;;;;;;;13.52;100.00;100839.69;5030426;28;20033;-74
2022/10/29 00:33:17;;;;;;;31.50;21.95;;;;;;;13.64;100.00;100842.25;5028530;28;20748;-75
2022/10/29 00:35:53;;;;;;;36.30;23.05;;;;;;;13.72;100.00;100845.09;5029583;28;20426;-73
2022/10/29 00:38:18;;;;;;;42.17;24.45;;;;;;;13.72;100.00;100845.09;5029675;28;20464;-74
2022/10/29 00:40:44;;;;;;;34.20;23.23;;;;;;;13.70;100.00;100836.44;5028845;28;20402;-74
2022/10/29 00:43:14;;;;;;;33.65;22.00;;;;;;;13.52;100.00;100837.03;5029389;28;20066;-74
2022/10/29 00:45:45;;;;;;;31.88;21.60;;;;;;;13.51;100.00;100843.31;5029346;28;20501;-74
2022/10/29 00:48:11;;;;;;;33.15;20.63;;;;;;;13.50;100.00;100836.31;5028669;28;20029;-74
2022/10/29 00:50:36;;;;;;;31.35;20.60;;;;;;;13.49;100.00;100831.97;5029760;28;20041;-74
2022/10/29 00:53:02;;;;;;;34.25;19.48;;;;;;;13.49;100.00;100837.28;5030529;28;20496;-74
2022/10/29 00:55:28;;;;;;;36.08;20.67;;;;;;;13.52;100.00;100842.34;5032451;28;20148;-74
2022/10/29 00:57:55;;;;;;;35.58;19.92;;;;;;;13.47;100.00;100841.91;5027057;28;20040;-74
2022/10/29 01:00:22;;;;;;;31.30;20.40;;;;;;;13.48;100.00;100843.56;5027498;28;20083;-74
2022/10/29 01:02:47;;;;;;;30.73;21.00;;;;;;;13.49;100.00;100839.94;5027755;28;20087;-74
2022/10/29 01:05:15;;;;;;;;;;;;;;;13.44;100.00;100836.84;5030096;28;20714;-74
2022/10/29 01:07:41;;;;;;;40.28;20.42;;;;;;;13.46;100.00;100834.91;5029897;28;19970;-74
2022/10/29 01:10:08;;;;;;;33.00;20.15;;;;;;;13.49;100.00;100837.28;5030724;28;20021;-73
2022/10/29 01:12:52;;;;;;;36.80;21.38;;;;;;;13.40;100.00;100835.41;5029447;28;20495;-74
2022/10/29 01:15:43;;;;;;;35.80;20.42;;;;;;;13.29;100.00;100843.44;5029073;28;20029;-74
2022/10/29 01:18:30;;;;;;;;;;;;;;;13.20;100.00;100838.91;5028378;28;20033;-73
2022/10/29 01:21:45;;;;;;;31.98;19.45;;;;;;;13.23;100.00;100832.50;5026178;28;20332;-74
2022/10/29 01:24:34;;;;;;;33.88;19.27;;;;;;;13.25;100.00;100836.72;4988830;28;20045;-74
2022/10/29 01:27:33;;;;;;;28.98;18.73;;;;;;;13.24;100.00;100832.38;4988069;28;20046;-74
2022/10/29 01:30:12;;;;;;;37.72;19.92;;;;;;;13.27;100.00;100829.47;4984909;28;20052;-74
2022/10/29 01:32:50;;;;;;;30.10;17.88;;;;;;;13.33;100.00;100834.25;4986169;28;20100;-74
2022/10/29 01:35:41;;;;;;;34.88;19.38;;;;;;;13.33;100.00;100826.31;4988432;28;20042;-74
2022/10/29 01:38:21;;;;;;;32.85;19.25;;;;;;;13.36;100.00;100827.88;4986314;28;20038;-74
2022/10/29 01:41:25;;;;;;;42.47;19.92;;;;;;;13.30;100.00;100817.78;4986795;28;20046;-74
2022/10/29 01:43:59;;;;;;;28.65;18.48;;;;;;;13.34;100.00;100822.69;4983701;28;20077;-74
2022/10/29 01:46:33;;;;;;;33.53;18.50;;;;;;;13.34;100.00;100809.44;4988245;28;20042;-74
2022/10/29 01:49:04;;;;;;;43.70;19.30;;;;;;;13.34;100.00;100814.72;4986930;28;20141;-74
2022/10/29 01:51:33;;;;;;;30.90;17.77;;;;;;;13.30;100.00;100813.31;4985101;28;20147;-74
2022/10/29 01:54:01;;;;;;;29.45;17.98;;;;;;;13.25;100.00;100810.22;4986315;28;20208;-74
2022/10/29 01:56:26;;;;;;;34.08;18.05;;;;;;;13.25;100.00;100812.88;5025745;28;20394;-75
2022/10/29 01:58:55;;;;;;;29.50;18.83;;;;;;;13.08;100.00;100797.47;5029095;28;20030;-75
2022/10/29 02:01:51;;;;;;;29.70;18.35;;;;;;;12.93;100.00;100804.06;5029405;28;20500;-74
2022/10/29 02:04:57;;;;;;;30.65;19.48;;;;;;;12.92;100.00;100797.09;5028590;28;20053;-74
2022/10/29 02:07:26;;;;;;;;;;;;;;;13.00;100.00;100790.19;5030119;28;20025;-74
2022/10/29 02:09:51;;;;;;;;;;;;;;;12.98;100.00;100791.28;5032546;28;19919;-75
2022/10/29 02:12:19;;;;;;;;;;;;;;;12.93;100.00;100796.13;5033727;28;20304;-75
2022/10/29 02:14:47;;;;;;;;;;;;;;;12.59;100.00;100785.69;5033078;28;19916;-74
2022/10/29 02:17:12;;;;;;;;;;;;;;;12.65;100.00;100787.81;5033651;28;20011;-74
2022/10/29 02:19:38;;;;;;;;;;;;;;;12.69;100.00;100785.75;5031833;28;20044;-75
2022/10/29 02:22:03;;;;;;;;;;;;;;;12.69;100.00;100791.06;5033446;28;19916;-74
2022/10/29 02:24:29;;;;;;;;;;;;;;;12.64;100.00;100796.72;5033239;28;19913;-74
2022/10/29 02:26:55;;;;;;;30.05;18.17;;;;;;;12.62;100.00;100790.72;5030924;28;19917;-74
2022/10/29 02:29:20;;;;;;;27.08;18.40;;;;;;;12.66;100.00;100794.78;5031808;28;20037;-74
2022/10/29 02:31:46;;;;;;;30.63;18.65;;;;;;;12.59;100.00;100790.13;5032355;28;20029;-75
2022/10/29 02:34:11;;;;;;;26.75;18.10;;;;;;;12.40;100.00;100790.78;5031043;28;20377;-74
2022/10/29 02:36:37;;;;;;;30.55;18.38;;;;;;;12.56;100.00;100791.22;5032493;28;20037;-74
2022/10/29 02:39:03;;;;;;;33.28;21.23;;;;;;;12.65;100.00;100790.47;5031511;28;20492;-74
2022/10/29 02:41:28;;;;;;;29.37;19.97;;;;;;;12.72;100.00;100783.69;5031401;28;20417;-73
2022/10/29 02:43:53;;;;;;;28.15;20.13;;;;;;;12.83;100.00;100782.81;5031238;28;20414;-74
2022/10/29 02:46:22;;;;;;;30.40;21.10;;;;;;;12.78;100.00;100778.88;5031300;28;20399;-73
2022/10/29 02:48:48;;;;;;;28.67;20.30;;;;;;;12.67;100.00;100787.69;5030825;28;20406;-73
2022/10/29 02:51:15;;;;;;;33.60;20.67;;;;;;;12.70;100.00;100790.09;5031607;28;20402;-74
2022/10/29 02:53:40;;;;;;;32.33;21.00;;;;;;;12.78;100.00;100785.00;5031257;28;20837;-75
2022/10/29 02:56:06;;;;;;;31.10;20.63;;;;;;;12.82;100.00;100789.06;5031476;28;20509;-74
2022/10/29 02:58:32;;;;;;;32.38;21.17;;;;;;;12.75;100.00;100785.25;5031104;28;20822;-74
2022/10/29 03:00:58;;;;;;;31.92;21.48;;;;;;;12.70;100.00;100783.00;5030737;28;20414;-75
2022/10/29 03:03:23;;;;;;;33.45;21.38;;;;;;;12.55;100.00;100783.38;5031400;28;20473;-74
2022/10/29 03:05:50;;;;;;;34.13;22.60;;;;;;;12.44;100.00;100781.63;5030705;28;20414;-74
2022/10/29 03:08:15;;;;;;;32.20;21.87;;;;;;;12.38;100.00;100776.81;5031167;28;20410;-74
2022/10/29 03:10:41;;;;;;;33.17;22.13;;;;;;;12.37;100.00;100780.44;5030887;28;20402;-74
2022/10/29 03:13:07;;;;;;;26.83;19.90;;;;;;;12.48;100.00;100782.22;5031077;28;20449;-74
2022/10/29 03:15:32;;;;;;;32.63;21.80;;;;;;;12.55;100.00;100773.63;5031071;28;20446;-73
2022/10/29 03:17:58;;;;;;;33.37;22.27;;;;;;;12.62;100.00;100776.63;5030300;28;20421;-74
2022/10/29 03:20:23;;;;;;;39.40;22.65;;;;;;;12.72;100.00;100769.63;5030384;28;20489;-74
2022/10/29 03:22:48;;;;;;;33.90;21.30;;;;;;;12.75;100.00;100755.28;5030337;28;20394;-74
2022/10/29 03:25:14;;;;;;;36.35;23.17;;;;;;;12.75;100.00;100760.56;5029392;28;20925;-74
2022/10/29 03:27:44;;;;;;;36.27;23.43;;;;;;;12.65;100.00;100761.34;5029192;28;20405;-74
2022/10/29 03:30:12;;;;;;;36.00;23.17;;;;;;;12.67;100.00;100762.03;5030960;28;20468;-74
2022/10/29 03:32:41;;;;;;;36.75;22.75;;;;;;;12.80;100.00;100761.88;5030569;28;20429;-75
2022/10/29 03:35:08;;;;;;;35.55;23.40;;;;;;;12.88;100.00;100766.53;5030515;28;20854;-74
2022/10/29 03:37:34;;;;;;;35.80;23.80;;;;;;;12.89;100.00;100776.16;5030539;28;20493;-75
2022/10/29 03:39:59;;;;;;;34.87;22.67;;;;;;;12.93;100.00;100772.28;5030598;28;20403;-75
2022/10/29 03:42:25;;;;;;;32.97;21.70;;;;;;;12.90;100.00;100772.56;5026553;28;20452;-73
2022/10/29 03:44:50;;;;;;;33.87;22.00;;;;;;;12.88;100.00;100774.47;5030460;28;20440;-74
2022/10/29 03:47:16;;;;;;;30.37;21.23;;;;;;;12.87;100.00;100770.16;5030562;28;20402;-76
2022/10/29 03:49:41;;;;;;;30.53;21.30;;;;;;;12.72;100.00;100780.22;5029871;28;20402;-75
2022/10/29 03:52:07;;;;;;;27.77;20.03;;;;;;;12.59;100.00;100775.09;5029924;28;20413;-75
2022/10/29 03:54:32;;;;;;;28.87;20.37;;;;;;;12.54;100.00;100771.97;5030295;28;20489;-75
2022/10/29 03:56:58;;;;;;;27.53;21.63;;;;;;;12.36;100.00;100772.63;5029716;28;20406;-75
2022/10/29 03:59:23;;;;;;;31.63;20.10;;;;;;;12.30;100.00;100768.69;5030025;28;20408;-75
2022/10/29 04:01:48;;;;;;;31.87;21.60;;;;;;;12.28;100.00;100773.25;5029700;28;20402;-75
2022/10/29 04:04:14;;;;;;;27.00;19.58;;;;;;;12.37;100.00;100774.31;5029891;28;20804;-76
2022/10/29 04:06:39;;;;;;;22.63;18.07;;;;;;;12.46;100.00;100777.06;5029305;28;20854;-76
2022/10/29 04:09:05;;;;;;;23.53;18.47;;;;;;;12.48;100.00;100777.78;5029910;28;20406;-75
2022/10/29 04:11:30;;;;;;;23.13;18.50;;;;;;;12.48;100.00;100785.72;5028783;28;20409;-74
2022/10/29 04:13:55;;;;;;;23.03;17.97;;;;;;;12.49;100.00;100782.09;5029293;28;20778;-73
2022/10/29 04:16:21;;;;;;;21.90;17.70;;;;;;;12.53;100.00;100780.03;5030667;28;20568;-73
2022/10/29 04:18:47;;;;;;;23.93;18.67;;;;;;;12.55;100.00;100765.69;5029431;28;20401;-73
2022/10/29 04:21:13;;;;;;;28.77;19.90;;;;;;;12.57;100.00;100776.16;5029316;28;20398;-74
2022/10/29 04:23:38;;;;;;;31.80;21.80;;;;;;;12.31;100.00;100775.66;5029571;28;20473;-76
2022/10/29 04:26:04;;;;;;;32.33;21.90;;;;;;;12.29;100.00;100767.84;5029426;28;20496;-75
2022/10/29 04:28:29;;;;;;;33.37;21.30;;;;;;;12.40;100.00;100774.91;5029457;28;20498;-75
2022/10/29 04:30:55;;;;;;;35.63;23.17;;;;;;;12.38;100.00;100778.63;5032076;28;20409;-73
2022/10/29 04:33:20;;;;;;;39.63;23.80;;;;;;;12.28;100.00;100781.19;5028743;28;20406;-74
2022/10/29 04:35:53;;;;;;;38.57;24.60;;;;;;;12.20;100.00;100780.94;5028873;28;20417;-75
2022/10/29 04:38:19;;;;;;;38.60;24.92;;;;;;;12.16;100.00;100779.53;5029352;28;20464;-75
2022/10/29 04:40:44;;;;;;;38.40;23.65;;;;;;;12.10;100.00;100777.38;5027879;28;20398;-73
2022/10/29 04:43:10;;;;;;;36.93;23.97;;;;;;;12.17;100.00;100779.41;5027062;28;20425;-75
2022/10/29 04:45:35;;;;;;;36.03;22.67;;;;;;;12.17;100.00;100783.84;5029077;28;20406;-75
2022/10/29 04:48:02;;;;;;;33.07;21.73;;;;;;;12.23;100.00;100783.38;5029216;28;20398;-74
2022/10/29 04:50:28;;;;;;;32.13;21.63;;;;;;;12.19;100.00;100787.25;5025109;28;20418;-74
2022/10/29 04:53:02;;;;;;;24.45;19.70;;;;;;;12.09;100.00;100787.13;5028604;28;20537;-74
2022/10/29 04:55:28;;;;;;;26.65;19.35;;;;;;;12.09;100.00;100786.25;5025299;28;20413;-75
2022/10/29 04:57:53;;;;;;;25.45;19.90;;;;;;;12.08;100.00;100788.06;5028440;28;20410;-74
2022/10/29 05:00:19;;;;;;;25.23;19.57;;;;;;;12.07;100.00;100798.78;5029030;28;20394;-75
2022/10/29 05:02:49;;;;;;;24.05;18.88;;;;;;;12.04;100.00;100791.94;5029193;28;20810;-75
2022/10/29 05:05:17;;;;;;;23.92;18.77;;;;;;;12.01;100.00;100789.53;5044306;22;20426;-76
2022/10/29 05:07:42;;;;;;;26.30;20.45;;;;;;;11.94;100.00;100795.44;5029929;28;20405;-78
2022/10/29 05:10:08;;;;;;;28.33;20.37;;;;;;;11.82;100.00;100789.31;5030394;28;20406;-78
2022/10/29 05:12:33;;;;;;;29.50;20.80;;;;;;;11.74;100.00;100792.53;5029422;28;20878;-77
2022/10/29 05:14:59;;;;;;;25.23;19.80;;;;;;;11.71;100.00;100792.78;5028837;28;20512;-77
2022/10/29 05:17:24;;;;;;;25.07;19.17;;;;;;;11.78;100.00;100793.97;5029278;28;20552;-78
2022/10/29 05:19:49;;;;;;;27.67;20.17;;;;;;;11.83;100.00;100791.84;5027272;28;20929;-78
2022/10/29 05:22:15;;;;;;;22.90;18.73;;;;;;;11.86;100.00;100794.22;5029200;28;20499;-78
2022/10/29 05:24:40;;;;;;;27.00;20.17;;;;;;;11.83;100.00;100791.84;5028334;28;20410;-78
2022/10/29 05:27:06;;;;;;;24.92;19.70;;;;;;;11.76;100.00;100790.63;5029098;28;20433;-78
2022/10/29 05:29:32;;;;;;;24.52;20.17;;;;;;;11.73;100.00;100790.84;5029442;28;20398;-78
2022/10/29 05:31:57;;;;;;;24.23;19.67;;;;;;;11.73;100.00;100788.22;5027578;28;20758;-78
2022/10/29 05:34:23;;;;;;;24.97;19.27;;;;;;;11.75;100.00;100783.66;5028672;28;20429;-78
2022/10/29 05:36:48;;;;;;;25.83;19.83;;;;;;;11.78;100.00;100787.88;5027171;28;20472;-78
2022/10/29 05:39:14;;;;;;;21.63;19.37;;;;;;;11.85;100.00;100778.47;5029143;28;20505;-78
2022/10/29 05:41:40;;;;;;;22.02;19.75;;;;;;;11.85;100.00;100776.69;5028747;28;20398;-78
2022/10/29 05:44:05;;;;;;;27.63;20.73;;;;;;;11.89;100.00;100780.78;5030707;28;20413;-78
2022/10/29 05:46:30;;;;;;;31.80;21.40;;;;;;;11.80;100.00;100775.34;5033121;28;20409;-77
2022/10/29 05:48:56;;;;;;;25.17;19.83;;;;;;;11.85;100.00;100778.47;5032046;28;20424;-78
2022/10/29 05:51:22;;;;;;;26.20;20.67;;;;;;;11.82;100.00;100774.28;5032875;28;20406;-78
2022/10/29 05:53:47;;;;;;;26.87;20.60;;;;;;;11.88;100.00;100781.75;5032055;28;20405;-77
2022/10/29 05:56:13;;;;;;;32.37;22.27;;;;;;;11.86;100.00;100781.00;5032558;28;20491;-78
2022/10/29 05:58:38;;;;;;;33.88;22.95;;;;;;;11.74;100.00;100781.97;5032332;28;20413;-78
2022/10/29 06:01:09;;;;;;;33.90;23.10;;;;;;;11.62;100.00;100782.91;5032557;28;20402;-77
2022/10/29 06:03:35;;;;;;;33.95;21.77;;;;;;;11.68;100.00;100782.41;5032591;28;20402;-77
2022/10/29 06:06:00;;;;;;;31.08;21.40;;;;;;;11.68;100.00;100787.72;5031764;28;20398;-77
2022/10/29 06:08:26;;;;;;;34.13;22.27;;;;;;;11.63;100.00;100781.94;5032486;28;20409;-77
2022/10/29 06:10:51;;;;;;;34.03;22.77;;;;;;;11.58;100.00;100786.75;5031984;28;20398;-76
2022/10/29 06:13:19;;;;;;;37.05;23.65;;;;;;;11.48;100.00;100791.06;5032071;28;20406;-76
2022/10/29 06:15:46;;;;;;;33.47;22.17;;;;;;;11.43;100.00;100798.50;5031721;28;20426;-75
2022/10/29 06:18:12;;;;;;;31.27;19.73;;;;;;;11.31;100.00;100799.47;5033336;28;20072;-76
2022/10/29 06:20:38;;;;;;;34.65;20.52;;;;;;;11.28;100.00;100805.81;5033582;28;20033;-75
2022/10/29 06:23:03;;;;;;;31.38;19.67;;;;;;;11.34;100.00;100805.34;5033186;28;20029;-76
2022/10/29 06:25:29;;;;;;;31.38;19.90;;;;;;;11.42;100.00;100804.75;5029184;28;20427;-77
2022/10/29 06:28:03;;;;;;;30.50;18.88;;;;;;;11.35;100.00;100806.19;5032467;28;20033;-77
2022/10/29 06:30:31;;;;;;;36.13;20.77;;;;;;;11.32;100.00;100806.41;5032695;28;20037;-74
2022/10/29 06:32:56;;;;;;;34.03;20.00;;;;;;;11.28;100.00;100805.81;5032344;28;20030;-77
2022/10/29 06:35:22;;;;;;;31.65;19.92;;;;;;;11.27;100.00;100808.56;5032447;28;20470;-77
2022/10/29 06:37:48;;;;;;;31.17;19.50;;;;;;;11.27;100.00;100803.28;5032203;28;20050;-77
2022/10/29 06:40:13;;;;;;;32.60;19.73;;;;;;;11.30;100.00;100806.53;5031589;28;20022;-77
2022/10/29 06:42:39;;;;;;;34.20;19.70;;;;;;;11.28;100.00;100802.31;5031812;28;20045;-76
2022/10/29 06:45:04;;;;;;;28.85;17.63;;;;;;;11.32;100.00;100806.41;5032222;28;20102;-76
2022/10/29 06:47:30;;;;;;;34.20;18.75;;;;;;;11.39;100.00;100805.81;5032448;28;20597;-76
2022/10/29 06:49:55;;;;;;;34.50;20.30;;;;;;;11.34;100.00;100804.50;5031601;28;20475;-77
2022/10/29 06:52:21;;;;;;;38.65;20.42;;;;;;;11.51;100.00;100806.69;5032323;28;20045;-77
2022/10/29 06:54:47;;;;;;;27.88;17.70;;;;;;;11.56;100.00;100807.16;5031562;28;20029;-77
2022/10/29 06:57:12;;;;;;;29.05;19.30;;;;;;;11.50;100.00;100805.00;5031426;28;20511;-77
2022/10/29 06:59:37;;;;;;;29.48;18.65;;;;;;;11.53;100.00;100811.84;5032022;28;20041;-77
2022/10/29 07:02:03;;;;;;;27.52;18.65;;;;;;;11.50;100.00;100815.56;5031198;28;20032;-77
2022/10/29 07:04:28;;;;;;;25.63;18.65;;;;;;;11.54;100.00;100813.53;5030243;28;20095;-77
2022/10/29 07:06:54;;;;;;;28.05;19.38;;;;;;;11.71;100.00;100813.94;5035181;28;20045;-76
2022/10/29 07:09:19;;;;;;;30.55;19.20;;;;;;;11.78;100.00;100815.13;5035817;28;20036;-76
2022/10/29 07:11:44;;;;;;;27.63;18.67;;;;;;;11.78;100.00;100809.84;5031898;28;20036;-77
2022/10/29 07:14:10;;;;;;;23.73;17.55;;;;;;;11.75;100.00;100815.38;5032113;28;20040;-75
2022/10/29 07:16:36;;;;;;;25.42;18.10;;;;;;;11.75;100.00;100823.31;5031796;28;20069;-76
2022/10/29 07:19:02;;;;;;;21.67;18.25;;;;;;;11.74;100.00;100819.00;5032281;28;20436;-76
2022/10/29 07:21:28;;;;;;;23.55;18.13;;;;;;;11.64;100.00;100818.00;5031603;28;20084;-75
2022/10/29 07:23:53;;;;;;;24.52;18.10;;;;;;;11.79;100.00;100819.47;5031752;28;20540;-75
2022/10/29 07:26:19;;;;;;;24.42;17.40;;;;;;;11.94;100.00;100819.25;5031808;28;20095;-75
2022/10/29 07:28:44;;;;;;;25.85;19.23;;;;;;;12.04;100.00;100820.19;5040296;28;20045;-75
2022/10/29 07:31:10;;;;;;;21.70;16.85;;;;;;;12.11;100.00;100816.09;5044673;28;20399;-75
2022/10/29 07:33:35;;;;;;;21.58;17.35;;;;;;;12.23;100.00;100815.13;5044133;28;20108;-74
2022/10/29 07:36:01;;;;;;;25.33;18.75;;;;;;;12.28;100.00;100823.53;5041457;28;20724;-74
2022/10/29 07:38:26;;;;;;;27.00;18.23;;;;;;;12.25;100.00;100816.66;5043276;28;20037;-75
2022/10/29 07:40:52;;;;;;;22.92;17.15;;;;;;;12.31;100.00;100824.13;5037312;28;20052;-73
2022/10/29 07:43:19;;;;;;;24.30;17.95;;;;;;;12.43;100.00;100822.28;5041578;28;20487;-74
2022/10/29 07:45:48;;;;;;;25.88;18.75;;;;;;;12.43;100.00;100822.28;5037127;28;20037;-73
2022/10/29 07:48:14;;;;;;;25.52;18.52;;;;;;;12.54;100.00;100824.94;5038687;28;20437;-73
2022/10/29 07:50:40;;;;;;;26.35;18.20;;;;;;;12.66;100.00;100828.38;5034709;28;20041;-74
2022/10/29 07:53:06;;;;;;;24.48;17.83;;;;;;;12.71;100.00;100827.06;5031139;28;20536;-74
2022/10/29 07:55:32;;;;;;;23.40;17.67;;;;;;;12.78;100.00;100826.53;5036512;28;20048;-73
2022/10/29 07:58:01;;;;;;;27.77;19.70;;;;;;;12.78;100.00;100826.53;5042770;28;20041;-74
2022/10/29 08:00:30;;;;;;;27.30;19.63;;;;;;;12.81;100.00;100842.16;5037004;28;20203;-74
2022/10/29 08:02:56;;;;;;;34.63;20.87;;;;;;;12.80;100.00;100829.88;5028764;28;20041;-75
2022/10/29 08:05:23;;;;;;;26.90;18.75;;;;;;;12.79;100.00;100838.78;5030743;28;20287;-78
2022/10/29 08:07:49;;;;;;;25.05;19.42;;;;;;;12.94;100.00;100834.91;5032553;28;20044;-75
2022/10/29 08:10:15;;;;;;;27.65;19.67;;;;;;;13.00;100.00;100834.41;5033170;28;20038;-74
2022/10/29 08:12:50;;;;;;;29.20;20.08;;;;;;;13.11;100.00;100837.00;5043815;28;20422;-74
2022/10/29 08:15:16;;;;;;;29.63;22.23;;;;;;;13.21;100.00;100835.28;5029581;28;20414;-74
2022/10/29 08:17:42;;;;;;;30.73;22.65;;;;;;;13.38;100.00;100837.34;5032172;28;20790;-75
2022/10/29 08:20:08;;;;;;;32.57;22.27;;;;;;;13.45;100.00;100838.53;5029128;28;20402;-74
2022/10/29 08:22:34;;;;;;;32.25;22.98;;;;;;;13.53;100.00;100846.69;5029778;28;20472;-75
2022/10/29 08:24:59;;;;;;;28.42;21.25;;;;;;;13.56;100.00;100839.41;5031779;28;20444;-76
2022/10/29 08:27:25;;;;;;;26.52;19.67;;;;;;;13.70;100.00;100847.03;5037196;28;20040;-76
2022/10/29 08:29:50;;;;;;;31.05;20.40;;;;;;;13.78;100.00;100844.59;5040516;28;20033;-75
2022/10/29 08:32:16;;;;;;;28.55;20.15;;;;;;;13.89;100.00;100841.84;5039148;28;20034;-76
2022/10/29 08:34:41;;;;;;;34.10;21.52;;;;;;;13.96;100.00;100832.34;5040231;28;20576;-74
2022/10/29 08:37:07;;;;;;;34.70;23.13;;;;;;;14.05;100.00;100831.56;5038611;28;20033;-75
2022/10/29 08:39:32;;;;;;;42.15;23.42;;;;;;;14.10;100.00;100824.03;5030211;28;20053;-75
2022/10/29 08:42:36;;;;;;;36.33;22.45;;;;;;;14.13;100.00;100834.41;5028555;28;20037;-74
2022/10/29 08:45:12;;;;;;;35.63;22.33;;;;;;;14.19;100.00;100827.72;5020439;28;20417;-76
2022/10/29 08:47:53;;;;;;;33.00;23.02;;;;;;;14.26;100.00;100828.81;5027699;28;21464;-75
2022/10/29 08:50:36;;;;;;;34.50;23.50;;;;;;;14.37;100.00;100825.25;5028260;28;20033;-76
2022/10/29 08:53:01;;;;;;;34.65;23.55;;;;;;;14.45;100.00;100822.75;5029414;28;20037;-75
2022/10/29 08:55:36;;;;;;;39.80;26.13;;;;;;;14.62;100.00;100822.09;5027207;28;20417;-76
2022/10/29 08:58:17;;;;;;;39.38;25.10;;;;;;;14.74;100.00;100823.63;5028317;28;20405;-78
2022/10/29 09:00:43;;;;;;;38.85;25.45;;;;;;;14.88;100.00;100817.94;5026200;28;20765;-78
2022/10/29 09:03:11;;;;;;;39.80;24.75;;;;;;;15.00;100.00;100819.47;5028389;28;20394;-76
2022/10/29 09:06:17;;;;;;;36.92;25.35;;;;;;;15.10;100.00;100820.28;5027811;28;20497;-77
2022/10/29 09:09:05;;;;;;;38.03;24.70;;;;;;;15.25;100.00;100830.50;5021007;28;20445;-75
2022/10/29 09:12:09;;;;;;;39.97;22.70;;;;;;;15.18;100.00;100826.72;5027429;28;20060;-74
2022/10/29 09:15:11;;;;;;;35.45;22.25;;;;;;;15.22;100.00;100825.44;5028334;28;20147;-75
2022/10/29 09:18:19;;;;;;;35.80;21.83;;;;;;;15.32;100.00;100831.59;5028520;28;20033;-76
2022/10/29 09:20:54;;;;;;;31.70;20.80;;;;;;;15.36;100.00;100830.34;5024486;28;20877;-75
2022/10/29 09:23:22;;;;;;;33.28;21.60;;;;;;;15.39;100.00;100824.72;5028165;28;20105;-75
2022/10/29 09:26:03;;;;;;;33.58;21.15;;;;;;;15.46;100.00;100825.84;5028331;28;20521;-74
2022/10/29 09:28:35;;;;;;;;;;;;;;;15.50;100.00;100821.91;5028174;28;20033;-74
2022/10/29 09:31:09;;;;;;;32.83;19.33;;;;;;;15.56;100.00;100814.22;5027203;28;20436;-75
2022/10/29 09:33:36;;;;;;;33.13;20.25;;;;;;;15.61;100.00;100815.63;5015179;28;20037;-75
2022/10/29 09:36:12;;;;;;;29.55;19.58;;;;;;;15.66;100.00;100806.22;5027897;28;20391;-75
2022/10/29 09:38:46;;;;;;;27.40;17.90;;;;;;;15.70;100.00;100807.59;5027332;28;20120;-75
2022/10/29 09:41:11;;;;;;;32.20;19.80;;;;;;;15.73;100.00;100801.97;5029815;28;20033;-73
2022/10/29 09:43:45;;;;;;;28.00;19.70;;;;;;;15.80;100.00;100800.41;5029810;28;20433;-75
2022/10/29 09:46:30;;;;;;;29.33;19.83;;;;;;;15.86;100.00;100796.31;5025861;28;20035;-73
2022/10/29 09:49:14;;;;;;;34.30;21.05;;;;;;;15.91;100.00;100797.56;5028749;28;20107;-76
2022/10/29 09:51:57;;;;;;;31.45;20.30;;;;;;;15.93;100.00;100800.94;5025764;28;20386;-74
2022/10/29 09:54:25;;;;;;;35.67;21.20;;;;;;;16.10;100.00;100801.13;5023276;28;20414;-73
2022/10/29 09:56:51;;;;;;;36.13;21.90;;;;;;;16.21;100.00;100793.78;5027728;28;20429;-73
2022/10/29 09:59:31;;;;;;;32.22;20.90;;;;;;;16.33;100.00;100799.72;5028300;28;20402;-74
2022/10/29 10:01:58;;;;;;;32.90;20.20;;;;;;;16.32;100.00;100798.03;5029156;28;20045;-74
2022/10/29 10:04:29;;;;;;;35.13;20.40;;;;;;;16.40;100.00;100800.81;5026398;28;20466;-74
2022/10/29 10:07:07;;;;;;;35.10;20.25;;;;;;;16.43;100.00;100800.53;5028642;28;20117;-74
2022/10/29 10:09:52;;;;;;;31.42;20.02;;;;;;;16.50;100.00;100798.91;5029550;28;20029;-75
2022/10/29 10:12:21;;;;;;;35.67;20.98;;;;;;;16.56;100.00;100795.66;5027157;28;20549;-75
2022/10/29 10:14:49;;;;;;;34.08;20.70;;;;;;;16.62;100.00;100795.06;5027708;28;20041;-75
2022/10/29 10:17:14;;;;;;;28.80;19.33;;;;;;;16.68;100.00;100794.47;5029383;28;20393;-75
2022/10/29 10:19:45;;;;;;;39.15;20.30;;;;;;;16.75;100.00;100784.88;5029002;28;20056;-75
2022/10/29 10:22:23;;;;;;;32.30;19.92;;;;;;;16.83;100.00;100791.28;5029314;28;20052;-74
2022/10/29 10:24:48;;;;;;;35.83;21.30;;;;;;;16.87;100.00;100788.16;5027024;28;20037;-74
2022/10/29 10:27:17;;;;;;;37.63;22.67;;;;;;;16.88;100.00;100789.84;5029302;28;20029;-76
2022/10/29 10:29:42;;;;;;;32.58;20.65;;;;;;;16.97;100.00;100782.72;5028961;28;20041;-74
2022/10/29 10:32:15;;;;;;;36.13;21.63;;;;;;;17.02;100.00;100775.13;5032221;28;20067;-74
2022/10/29 10:34:40;;;;;;;36.83;21.85;;;;;;;17.08;100.00;100774.50;5029393;28;20065;-75
2022/10/29 10:37:17;;;;;;;33.75;21.70;;;;;;;17.12;100.00;100770.53;5032120;28;20072;-75
2022/10/29 10:39:51;;;;;;;33.03;22.85;;;;;;;17.16;100.00;100762.06;5029559;28;20033;-75
2022/10/29 10:42:25;;;;;;;33.03;21.10;;;;;;;17.23;100.00;100772.94;5032813;28;20034;-75
2022/10/29 10:44:53;;;;;;;;;;;;;;;17.27;100.00;100762.78;5032702;28;20112;-75
2022/10/29 10:47:20;;;;;;;;;;;;;;;17.31;100.00;100746.34;5033133;28;19916;-74
2022/10/29 10:49:46;;;;;;;;;;;;;;;17.35;100.00;100747.69;5032712;28;19920;-75
2022/10/29 10:52:17;;;;;;;;;;;;;;;17.46;100.00;100741.22;5032577;28;19917;-75
2022/10/29 10:54:57;;;;;;;;;;;;;;;17.52;100.00;100736.09;5032875;28;19917;-75
2022/10/29 10:57:31;;;;;;;;;;;;;;;17.61;100.00;100722.84;5031350;28;20425;-75
2022/10/29 11:00:08;;;;;;;;;;;;;;;17.68;100.00;100723.84;5032521;28;19974;-75
2022/10/29 11:02:52;;;;;;;;;;;;;;;17.84;100.00;100723.94;5029179;28;19925;-75
2022/10/29 11:05:24;;;;;;;;;;;;;;;17.93;100.00;100728.28;5028700;28;19917;-74
2022/10/29 11:08:08;;;;;;;;;;;;;;;17.99;100.00;100716.97;5032210;28;19917;-76
2022/10/29 11:10:38;;;;;;;;;;;;;;;18.09;100.00;100722.16;5030395;28;19940;-76
2022/10/29 11:13:08;;;;;;;;;;;;;;;18.14;100.00;100712.69;5028844;28;19917;-76
2022/10/29 11:15:59;;;;;;;;;;;;;;;18.18;100.00;100711.34;5029401;28;19939;-76
2022/10/29 11:18:32;;;;;;;;;;;;;;;18.26;100.00;100703.34;5030140;28;20427;-76
2022/10/29 11:21:00;;;;;;;;;;;;;;;18.33;100.00;100698.16;5031782;28;20288;-75